Time;durP1;ratioP1;P1;durP2;ratioP2;P2;SDS_P1;SDS_P2;PMS_P1;PMS_P2;Temp;Humidity;BMP_temperature;BMP_pressure;BME280_temperature;BME280_humidity;BME280_pressure;Samples;Min_cycle;Max_cycle;Signal;HPM_P1;HPM_P2
2022/10/24 00:00:10;;;;;;;6.38;1.70;;;;;;;16.32;77.15;97858.94;5032524;28;20033;-90
2022/10/24 00:02:36;;;;;;;6.10;1.58;;;;;;;16.31;77.09;97859.16;5047596;28;20075;-89
2022/10/24 00:05:02;;;;;;;7.60;1.70;;;;;;;16.39;77.40;97884.44;5042133;28;20485;-90
2022/10/24 00:07:27;;;;;;;5.03;1.42;;;;;;;16.37;77.20;97868.78;5037471;28;20548;-91
2022/10/24 00:09:53;;;;;;;4.85;1.70;;;;;;;16.39;77.17;97873.84;5045439;28;20113;-89
2022/10/24 00:12:19;;;;;;;5.80;1.63;;;;;;;16.29;77.34;97854.13;5036223;28;20132;-90
2022/10/24 00:14:45;;;;;;;8.40;1.98;;;;;;;16.34;77.19;97879.84;5046268;28;20060;-91
2022/10/24 00:17:10;;;;;;;4.65;1.30;;;;;;;16.36;76.76;97876.97;5042756;28;20026;-90
2022/10/24 00:19:36;;;;;;;4.47;1.40;;;;;;;16.38;76.90;97869.59;5038251;28;20041;-90
2022/10/24 00:22:02;;;;;;;5.78;1.48;;;;;;;16.25;77.25;97855.66;5049664;28;20060;-89
2022/10/24 00:24:28;;;;;;;6.18;1.58;;;;;;;16.32;76.86;97866.06;5048698;28;20037;-89
2022/10/24 00:26:53;;;;;;;8.88;1.73;;;;;;;16.20;76.39;97850.28;5049567;28;20025;-89
2022/10/24 00:29:19;;;;;;;3.78;1.20;;;;;;;16.13;76.50;97841.69;5037600;28;20124;-89
2022/10/24 00:31:44;;;;;;;4.20;1.80;;;;;;;16.07;76.99;97837.34;5053069;28;20090;-89
2022/10/24 00:34:10;;;;;;;3.85;1.38;;;;;;;16.19;76.64;97859.28;5050455;28;20480;-89
2022/10/24 00:36:36;;;;;;;4.40;1.85;;;;;;;16.19;76.91;97863.72;5049195;28;20048;-89
2022/10/24 00:39:02;;;;;;;4.78;1.30;;;;;;;16.21;76.94;97870.41;5050141;28;20033;-90
2022/10/24 00:41:35;;;;;;;3.58;1.80;;;;;;;16.15;76.71;97871.38;5042702;28;20030;-89
2022/10/24 00:44:28;;;;;;;4.82;1.55;;;;;;;16.20;77.00;97874.09;5050262;28;20060;-89
2022/10/24 00:47:13;;;;;;;6.95;1.25;;;;;;;16.18;76.75;97883.31;5043179;28;20037;-90
2022/10/24 00:49:52;;;;;;;4.90;1.50;;;;;;;16.16;76.85;97878.25;5029834;28;20051;-90
2022/10/24 00:52:25;;;;;;;4.85;1.20;;;;;;;16.16;76.55;97878.25;5042389;28;20064;-89
2022/10/24 00:54:54;;;;;;;3.47;1.63;;;;;;;16.17;77.00;97885.16;5043146;28;20087;-90
2022/10/24 00:57:45;;;;;;;4.30;1.25;;;;;;;16.15;76.98;97887.25;5052891;28;20120;-90
2022/10/24 01:00:20;;;;;;;5.75;1.20;;;;;;;16.08;77.57;97886.59;5035245;28;20033;-89
2022/10/24 01:02:46;;;;;;;5.60;1.00;;;;;;;16.03;77.29;97876.72;5049790;28;20067;-89
2022/10/24 01:05:13;;;;;;;4.57;2.08;;;;;;;15.93;77.41;97868.63;5039214;28;20515;-90
2022/10/24 01:08:21;;;;;;;3.67;1.40;;;;;;;16.02;77.66;97892.84;5053743;28;20087;-90
2022/10/24 01:11:00;;;;;;;4.63;1.42;;;;;;;15.97;77.71;97884.81;5038160;28;20484;-90
2022/10/24 01:14:10;;;;;;;4.75;2.10;;;;;;;15.86;77.61;97883.84;5030220;28;20022;-90
2022/10/24 01:16:45;;;;;;;3.88;1.08;;;;;;;15.94;77.86;97891.38;5030940;28;20044;-89
2022/10/24 01:20:17;;;;;;;3.97;1.15;;;;;;;15.82;77.73;97873.97;5030650;28;20424;-90
2022/10/24 01:23:21;;;;;;;5.07;1.25;;;;;;;15.83;78.38;97888.78;5027345;28;20400;-90
2022/10/24 01:26:23;;;;;;;2.15;1.17;;;;;;;15.86;78.14;97890.97;5047023;28;20029;-89
2022/10/24 01:29:10;;;;;;;3.28;1.02;;;;;;;15.86;78.53;97888.34;5050145;28;20032;-89
2022/10/24 01:31:57;;;;;;;2.42;1.02;;;;;;;15.68;78.37;97871.63;5046791;28;20075;-90
2022/10/24 01:34:43;;;;;;;3.00;1.10;;;;;;;15.71;78.38;97873.81;5031763;28;20029;-89
2022/10/24 01:37:38;;;;;;;4.00;1.10;;;;;;;15.82;78.43;97889.84;5032269;28;20029;-90
2022/10/24 01:40:16;;;;;;;3.83;1.10;;;;;;;15.70;78.66;97882.75;5053370;28;20522;-90
2022/10/24 01:42:45;;;;;;;7.57;1.10;;;;;;;15.55;79.18;97877.19;5051099;28;20498;-89
2022/10/24 01:45:22;;;;;;;3.58;1.30;;;;;;;15.56;79.51;97878.78;5034423;28;20440;-89
2022/10/24 01:48:04;;;;;;;6.15;0.95;;;;;;;15.57;79.72;97890.97;5050311;28;20072;-89
2022/10/24 01:50:35;;;;;;;4.97;1.23;;;;;;;15.54;79.53;97891.44;5041305;28;20495;-91
2022/10/24 01:53:02;;;;;;;5.13;1.23;;;;;;;15.55;79.60;97890.41;5034539;28;20037;-89
2022/10/24 01:55:31;;;;;;;4.13;1.20;;;;;;;15.65;79.52;97895.91;5035417;28;20041;-91
2022/10/24 01:57:58;;;;;;;5.82;1.38;;;;;;;15.60;79.34;97885.22;5069103;28;20480;-90
2022/10/24 02:00:24;;;;;;;6.47;1.25;;;;;;;15.71;79.64;97889.69;5062354;28;20043;-90
2022/10/24 02:03:15;;;;;;;3.92;1.33;;;;;;;15.65;79.72;97874.78;5034524;28;20061;-90
2022/10/24 02:05:55;;;;;;;6.25;1.20;;;;;;;15.55;80.04;97877.19;5033092;28;20112;-89
2022/10/24 02:08:33;;;;;;;5.03;1.30;;;;;;;15.57;80.47;97890.16;5033497;28;20083;-91
2022/10/24 02:11:05;;;;;;;4.38;1.25;;;;;;;15.49;80.63;97867.56;5042162;28;20039;-89
2022/10/24 02:13:36;;;;;;;3.85;1.08;;;;;;;15.55;80.68;97874.53;5059705;28;20086;-91
2022/10/24 02:16:04;;;;;;;4.57;1.48;;;;;;;15.38;81.09;97850.72;5036497;28;20034;-90
2022/10/24 02:18:32;;;;;;;7.13;1.60;;;;;;;15.40;81.47;97869.75;5032629;28;20052;-90
2022/10/24 02:21:22;;;;;;;3.30;1.15;;;;;;;15.36;81.39;97859.94;5032198;28;20496;-89
2022/10/24 02:24:12;;;;;;;7.65;1.30;;;;;;;15.38;81.37;97871.06;5062021;28;20060;-90
2022/10/24 02:26:51;;;;;;;3.47;1.08;;;;;;;15.36;81.55;97862.56;5028487;28;20029;-90
2022/10/24 02:29:57;;;;;;;4.88;1.27;;;;;;;15.30;82.06;97868.78;5052830;28;20123;-90
2022/10/24 02:32:33;;;;;;;3.88;1.20;;;;;;;15.30;82.10;97866.94;5047668;28;20092;-90
2022/10/24 02:35:02;;;;;;;2.78;1.27;;;;;;;15.21;82.36;97855.94;5051308;28;20111;-91
2022/10/24 02:37:33;;;;;;;5.05;1.27;;;;;;;15.20;82.96;97862.25;5040350;28;20030;-91
2022/10/24 02:40:01;;;;;;;4.20;1.20;;;;;;;15.11;82.93;97847.00;5050366;28;20029;-91
2022/10/24 02:42:30;;;;;;;3.67;1.25;;;;;;;15.12;83.50;97867.91;5031185;28;20042;-90
2022/10/24 02:44:58;;;;;;;3.65;1.13;;;;;;;15.03;83.94;97861.38;5042437;28;20055;-91
2022/10/24 02:47:43;;;;;;;6.65;1.48;;;;;;;15.11;83.94;97871.56;5051947;28;20080;-90
2022/10/24 02:50:10;;;;;;;5.68;1.33;;;;;;;15.06;84.01;97863.56;5051163;28;20496;-90
2022/10/24 02:52:38;;;;;;;3.30;1.23;;;;;;;14.93;84.41;97853.25;5052138;28;20032;-91
2022/10/24 02:55:05;;;;;;;5.70;1.50;;;;;;;14.92;84.61;97849.81;5051292;28;20068;-90
2022/10/24 02:57:31;;;;;;;4.65;1.52;;;;;;;14.89;84.68;97860.06;5051826;28;20059;-90
2022/10/24 02:59:56;;;;;;;4.90;1.08;;;;;;;14.86;85.17;97866.59;5048601;28;20037;-90
2022/10/24 03:02:22;;;;;;;5.63;1.30;;;;;;;14.86;85.61;97879.78;5039881;28;20484;-90
2022/10/24 03:04:48;;;;;;;4.38;1.27;;;;;;;14.72;85.96;97870.50;5066746;28;20132;-90
2022/10/24 03:07:14;;;;;;;7.82;1.65;;;;;;;14.71;86.30;97875.00;5051131;28;20115;-90
2022/10/24 03:09:40;;;;;;;3.80;1.20;;;;;;;14.49;86.91;97859.97;5050338;28;20029;-90
2022/10/24 03:12:06;;;;;;;3.78;1.45;;;;;;;14.54;86.99;97868.81;5051974;28;20507;-90
2022/10/24 03:14:31;;;;;;;5.40;1.73;;;;;;;14.50;87.55;97870.28;5042513;28;20033;-91
2022/10/24 03:16:57;;;;;;;3.75;1.48;;;;;;;14.51;87.34;97876.38;5038653;28;20388;-89
2022/10/24 03:19:22;;;;;;;3.58;1.20;;;;;;;14.51;87.28;97871.09;5051849;28;20067;-90
2022/10/24 03:21:48;;;;;;;4.93;1.58;;;;;;;14.45;87.53;97865.69;5031175;28;20033;-90
2022/10/24 03:24:14;;;;;;;2.97;1.45;;;;;;;14.40;87.91;97862.13;5030373;28;20038;-89
2022/10/24 03:26:40;;;;;;;6.93;2.08;;;;;;;14.44;87.64;97865.91;5042940;28;20022;-90
2022/10/24 03:29:05;;;;;;;6.60;2.20;;;;;;;14.43;87.79;97869.56;5032026;28;20064;-90
2022/10/24 03:31:31;;;;;;;4.95;1.50;;;;;;;14.45;88.10;97878.88;5030653;28;20041;-91
2022/10/24 03:33:57;;;;;;;5.03;1.35;;;;;;;14.47;88.07;97870.75;5046821;28;20048;-89
2022/10/24 03:36:24;;;;;;;2.17;1.10;;;;;;;14.36;88.21;97859.13;5051286;28;20527;-91
2022/10/24 03:38:49;;;;;;;4.75;1.60;;;;;;;14.31;88.71;97858.22;5051047;28;20033;-90
2022/10/24 03:41:15;;;;;;;2.65;1.27;;;;;;;14.22;88.53;97851.69;5065476;28;20032;-89
2022/10/24 03:43:40;;;;;;;2.05;1.35;;;;;;;14.25;89.18;97864.41;5053649;28;20454;-89
2022/10/24 03:46:06;;;;;;;4.07;1.20;;;;;;;14.23;89.93;97858.56;5044309;28;20065;-89
2022/10/24 03:48:31;;;;;;;6.03;1.75;;;;;;;14.26;90.10;97873.94;5047375;28;20041;-90
2022/10/24 03:50:57;;;;;;;5.47;1.45;;;;;;;14.24;90.54;97881.28;5046182;28;20549;-91
2022/10/24 03:53:22;;;;;;;6.35;1.75;;;;;;;14.26;90.37;97879.19;5050859;28;20037;-91
2022/10/24 03:55:48;;;;;;;4.00;1.40;;;;;;;14.15;90.47;97852.59;5046341;28;20041;-91
2022/10/24 03:58:13;;;;;;;4.55;1.38;;;;;;;14.18;90.19;97838.94;5040310;28;20048;-90
2022/10/24 04:00:41;;;;;;;4.70;1.80;;;;;;;14.26;90.45;97855.47;5042419;28;20035;-90
2022/10/24 04:03:08;;;;;;;3.20;1.40;;;;;;;14.19;90.91;97858.22;5039938;28;20052;-89
2022/10/24 04:05:34;;;;;;;3.97;1.13;;;;;;;14.16;90.93;97859.47;5049911;28;20060;-90
2022/10/24 04:08:00;;;;;;;5.13;1.35;;;;;;;14.03;91.50;97849.13;5039868;28;20031;-90
2022/10/24 04:10:26;;;;;;;5.13;1.80;;;;;;;14.10;91.37;97857.75;5049744;28;20532;-91
2022/10/24 04:12:52;;;;;;;3.15;1.33;;;;;;;14.00;91.62;97849.59;5035955;28;20172;-91
2022/10/24 04:15:18;;;;;;;3.28;1.60;;;;;;;14.13;91.77;97862.56;5032568;28;20037;-90
2022/10/24 04:17:43;;;;;;;2.95;1.40;;;;;;;14.03;91.87;97854.41;5030419;28;20037;-90
2022/10/24 04:20:10;;;;;;;7.53;1.52;;;;;;;14.00;91.89;97849.59;5029404;28;20087;-89
2022/10/24 04:22:35;;;;;;;4.13;1.25;;;;;;;13.99;91.89;97853.28;5030427;28;20489;-90
2022/10/24 04:25:01;;;;;;;3.83;1.50;;;;;;;13.99;91.75;97853.28;5041410;28;20082;-89
2022/10/24 04:27:27;;;;;;;5.35;1.67;;;;;;;14.04;91.46;97856.03;5050604;28;20104;-90
2022/10/24 04:29:52;;;;;;;7.05;1.42;;;;;;;14.01;91.21;97856.47;5049848;28;20082;-91
2022/10/24 04:32:18;;;;;;;5.32;1.88;;;;;;;14.07;91.07;97881.13;5036913;28;20033;-90
2022/10/24 04:34:43;;;;;;;3.33;1.42;;;;;;;14.07;91.35;97881.13;5029473;28;20042;-90
2022/10/24 04:37:09;;;;;;;3.75;1.45;;;;;;;13.94;91.51;97855.78;5043943;28;20029;-91
2022/10/24 04:39:34;;;;;;;4.35;1.58;;;;;;;13.96;92.09;97881.91;5049482;28;20045;-90
2022/10/24 04:42:00;;;;;;;4.78;1.40;;;;;;;13.91;92.30;97872.88;5028917;28;20039;-90
2022/10/24 04:44:26;;;;;;;3.47;1.38;;;;;;;13.86;92.38;97866.66;5029681;28;20114;-88
2022/10/24 04:46:59;;;;;;;4.80;1.50;;;;;;;13.87;92.65;97870.91;5044656;28;20030;-90
2022/10/24 04:49:24;;;;;;;4.10;1.63;;;;;;;13.84;92.82;97858.16;5045597;28;20120;-90
2022/10/24 04:51:50;;;;;;;7.38;1.80;;;;;;;13.85;92.77;97857.94;5030096;28;20480;-89
2022/10/24 04:54:15;;;;;;;4.80;1.60;;;;;;;13.92;92.59;97861.28;5034014;28;20037;-90
2022/10/24 04:56:41;;;;;;;4.53;1.35;;;;;;;14.02;92.69;97873.09;5036163;28;20476;-91
2022/10/24 04:59:06;;;;;;;3.42;1.45;;;;;;;13.93;92.48;97859.44;5028654;28;20030;-90
2022/10/24 05:01:32;;;;;;;5.95;1.60;;;;;;;13.95;92.38;97862.66;5033692;28;20044;-90
2022/10/24 05:03:57;;;;;;;2.58;1.42;;;;;;;14.04;92.54;97876.31;5039399;28;20488;-90
2022/10/24 05:06:23;;;;;;;5.30;1.60;;;;;;;13.93;92.69;97867.34;5049857;28;20104;-89
2022/10/24 05:08:48;;;;;;;4.00;1.67;;;;;;;13.96;92.61;97863.44;5048251;28;20484;-90
2022/10/24 05:11:14;;;;;;;5.60;1.52;;;;;;;13.96;92.43;97856.34;5048959;28;20036;-90
2022/10/24 05:13:41;;;;;;;3.65;1.52;;;;;;;14.08;92.33;97862.44;5042380;28;20037;-90
2022/10/24 05:16:06;;;;;;;8.90;1.60;;;;;;;14.07;92.12;97847.66;5045358;28;20045;-91
2022/10/24 05:18:32;;;;;;;4.15;1.35;;;;;;;13.99;91.97;97834.00;5035264;28;20029;-91
2022/10/24 05:20:59;;;;;;;4.03;1.20;;;;;;;14.15;91.75;97849.97;5049875;28;20046;-90
2022/10/24 05:23:26;;;;;;;2.95;1.55;;;;;;;14.19;91.66;97851.09;5049913;28;20404;-89
2022/10/24 05:25:52;;;;;;;4.03;2.03;;;;;;;14.16;91.44;97846.28;5047210;28;20029;-89
2022/10/24 05:28:18;;;;;;;5.53;1.50;;;;;;;14.06;91.48;97826.78;5036951;28;20037;-89
2022/10/24 05:30:44;;;;;;;5.22;1.67;;;;;;;14.20;91.52;97850.06;5048267;28;20032;-90
2022/10/24 05:33:11;;;;;;;5.85;1.70;;;;;;;14.08;91.04;97820.25;5059932;28;20455;-90
2022/10/24 05:35:36;;;;;;;4.07;1.35;;;;;;;14.16;91.61;97830.47;5044413;28;20038;-89
2022/10/24 05:38:02;;;;;;;5.20;1.40;;;;;;;14.15;91.70;97828.88;5037428;28;20037;-90
2022/10/24 05:40:28;;;;;;;6.28;1.77;;;;;;;14.23;91.28;97833.00;5037576;28;20039;-90
2022/10/24 05:42:53;;;;;;;5.68;1.60;;;;;;;14.23;91.65;97824.28;5043363;28;20127;-90
2022/10/24 05:45:19;;;;;;;6.00;1.98;;;;;;;14.06;91.30;97797.78;5031739;28;20056;-90
2022/10/24 05:47:54;;;;;;;5.97;1.52;;;;;;;14.13;91.46;97807.19;5041584;28;20032;-90
2022/10/24 05:50:20;;;;;;;6.10;1.83;;;;;;;14.10;91.41;97805.00;5049941;28;20040;-90
2022/10/24 05:52:46;;;;;;;3.95;1.70;;;;;;;14.02;91.54;97794.78;5039795;28;20056;-90
2022/10/24 05:55:11;;;;;;;4.72;1.80;;;;;;;14.07;91.58;97813.38;5045703;28;20075;-88
2022/10/24 05:57:38;;;;;;;5.47;1.77;;;;;;;14.07;91.47;97797.53;5032048;28;20041;-90
2022/10/24 06:00:12;;;;;;;5.38;1.50;;;;;;;14.16;91.55;97817.28;5050107;28;20065;-91
2022/10/24 06:02:38;;;;;;;5.43;1.60;;;;;;;14.11;91.53;97798.69;5049377;28;20044;-89
2022/10/24 06:05:04;;;;;;;3.85;1.65;;;;;;;14.18;91.53;97804.66;5049230;28;20041;-90
2022/10/24 06:07:30;;;;;;;3.25;1.55;;;;;;;14.26;91.13;97829.09;5048427;28;20029;-91
2022/10/24 06:09:56;;;;;;;4.10;1.67;;;;;;;14.24;90.96;97831.97;5044580;28;20044;-91
2022/10/24 06:12:22;;;;;;;5.43;1.90;;;;;;;14.30;90.82;97852.16;5036890;28;20103;-91
2022/10/24 06:14:47;;;;;;;6.32;1.80;;;;;;;14.28;90.73;97842.88;5029004;28;20029;-90
2022/10/24 06:17:13;;;;;;;7.93;1.95;;;;;;;14.29;90.81;97852.38;5044154;28;20033;-91
2022/10/24 06:19:39;;;;;;;6.10;1.70;;;;;;;14.37;90.53;97867.84;5047372;28;20484;-91
2022/10/24 06:22:07;;;;;;;5.47;2.67;;;;;;;14.40;90.58;97859.50;5049841;28;20048;-91
2022/10/24 06:24:35;;;;;;;4.55;1.55;;;;;;;14.29;90.39;97844.47;5062451;28;20064;-91
2022/10/24 06:27:01;;;;;;;4.88;1.83;;;;;;;14.39;90.44;97860.50;5052747;28;20411;-90
2022/10/24 06:29:26;;;;;;;3.72;1.60;;;;;;;14.34;90.31;97844.59;5053164;28;20091;-90
2022/10/24 06:31:52;;;;;;;5.97;2.17;;;;;;;14.47;90.18;97865.50;5049056;28;20032;-91
2022/10/24 06:34:17;;;;;;;5.93;2.10;;;;;;;14.38;90.41;97866.81;5048282;28;20401;-92
2022/10/24 06:36:43;;;;;;;8.07;2.30;;;;;;;14.39;90.54;97877.16;5051196;28;20102;-92
2022/10/24 06:39:08;;;;;;;4.28;2.13;;;;;;;14.49;90.39;97866.06;5045945;28;20064;-90
2022/10/24 06:41:34;;;;;;;4.47;1.70;;;;;;;14.46;90.03;97853.31;5043857;28;20095;-90
2022/10/24 06:44:02;;;;;;;7.32;1.90;;;;;;;14.47;90.03;97865.50;5035996;28;20127;-92
2022/10/24 06:46:27;;;;;;;5.38;1.70;;;;;;;14.52;89.68;97857.69;5063249;28;20021;-91
2022/10/24 06:48:54;;;;;;;5.20;1.92;;;;;;;14.60;89.39;97854.69;5041714;28;20044;-90
2022/10/24 06:51:20;;;;;;;4.00;1.58;;;;;;;14.58;89.44;97848.84;5050197;28;20086;-91
2022/10/24 06:53:46;;;;;;;4.32;1.75;;;;;;;14.63;88.62;97848.13;5050452;28;20052;-90
2022/10/24 06:56:13;;;;;;;3.22;1.88;;;;;;;14.58;88.82;97821.66;5041666;28;20124;-90
2022/10/24 06:58:39;;;;;;;5.88;1.67;;;;;;;14.67;88.78;97828.97;5067402;28;20029;-90
2022/10/24 07:01:15;;;;;;;5.05;2.10;;;;;;;14.76;88.79;97836.56;5051878;28;20093;-92
2022/10/24 07:03:42;;;;;;;5.80;1.88;;;;;;;14.72;88.94;97834.34;5052245;28;20392;-91
2022/10/24 07:06:16;;;;;;;6.63;2.00;;;;;;;14.79;88.53;97841.34;5051991;28;20068;-91
2022/10/24 07:09:44;;;;;;;4.22;1.90;;;;;;;14.82;88.01;97862.03;5084218;27;20420;-90
2022/10/24 07:12:11;;;;;;;6.05;2.15;;;;;;;14.81;88.17;97870.94;5082494;28;20033;-90
2022/10/24 07:14:36;;;;;;;8.50;2.05;;;;;;;14.78;88.65;97890.72;5042982;28;20032;-89
2022/10/24 07:17:03;;;;;;;7.00;2.30;;;;;;;14.74;88.31;97908.03;5083260;28;20514;-90
2022/10/24 07:19:28;;;;;;;6.40;2.35;;;;;;;14.89;87.99;97952.47;5068546;28;20455;-91
2022/10/24 07:21:54;;;;;;;6.00;2.13;;;;;;;14.89;87.96;97963.84;5065674;28;20028;-90
2022/10/24 07:24:21;;;;;;;5.25;2.17;;;;;;;15.11;85.02;98013.41;5067822;28;20052;-91
2022/10/24 07:26:49;;;;;;;4.53;2.08;;;;;;;14.94;88.80;98039.72;5066889;28;20756;-90
2022/10/24 07:29:15;;;;;;;4.95;2.00;;;;;;;14.79;90.13;98073.69;5066646;28;20075;-90
2022/10/24 07:31:40;;;;;;;4.88;2.05;;;;;;;-143.04;100.00;61139.28;5065401;28;20040;-90
2022/10/24 07:34:07;;;;;;;4.18;2.08;;;;;;;-143.04;100.00;61139.28;5067332;28;20115;-90
2022/10/24 07:36:33;;;;;;;7.93;2.88;;;;;;;-143.04;100.00;61139.28;5066370;28;20048;-89
2022/10/24 07:39:00;;;;;;;5.05;1.63;;;;;;;-143.04;100.00;61139.28;5066728;28;20083;-91
2022/10/24 07:41:28;;;;;;;3.67;1.92;;;;;;;-143.04;100.00;61139.28;5067597;28;20028;-90
2022/10/24 07:43:55;;;;;;;6.18;2.05;;;;;;;-143.04;100.00;61139.28;5066200;28;20043;-91
2022/10/24 07:46:21;;;;;;;9.80;1.98;;;;;;;-143.04;100.00;61139.28;5064883;28;20024;-89
2022/10/24 07:48:51;;;;;;;7.20;2.00;;;;;;;-143.04;100.00;61139.28;5067220;28;20021;-90
2022/10/24 07:51:17;;;;;;;8.60;2.20;;;;;;;-143.04;100.00;61139.28;5065592;28;20028;-90
2022/10/24 07:53:45;;;;;;;6.00;1.95;;;;;;;-143.04;100.00;61139.28;5066896;28;20051;-91
2022/10/24 07:56:18;;;;;;;5.40;2.38;;;;;;;-143.04;100.00;61139.28;5045075;28;20111;-91
2022/10/24 07:58:45;;;;;;;6.65;2.70;;;;;;;-143.04;100.00;61139.28;5047979;28;20125;-90
2022/10/24 08:01:24;;;;;;;7.93;2.50;;;;;;;-143.04;100.00;61139.28;5061590;28;20034;-91
2022/10/24 08:03:49;;;;;;;7.82;2.65;;;;;;;-143.04;100.00;61139.28;5014679;28;20107;-92
2022/10/24 08:31:00;;;;;;;10.32;3.03;;;;;;;13.79;100.00;97979.28;5045561;27;20370;-89
2022/10/24 08:33:26;;;;;;;7.40;2.38;;;;;;;13.77;100.00;97968.97;5023742;28;20045;-89
2022/10/24 08:35:59;;;;;;;7.15;2.58;;;;;;;13.76;100.00;97967.34;5017495;28;20048;-90
2022/10/24 08:38:26;;;;;;;6.78;2.30;;;;;;;13.78;100.00;97956.59;5042898;28;20434;-89
2022/10/24 08:40:52;;;;;;;6.07;2.50;;;;;;;13.91;100.00;97978.31;5005775;28;20041;-89
2022/10/24 08:43:19;;;;;;;6.22;2.90;;;;;;;13.96;100.00;97990.81;5017654;28;20046;-90
2022/10/24 08:46:17;;;;;;;8.43;3.50;;;;;;;14.07;100.00;97987.41;5035418;28;20049;-90
2022/10/24 08:48:58;;;;;;;11.95;4.07;;;;;;;14.13;100.00;97962.78;5012622;28;20038;-90
2022/10/24 08:51:39;;;;;;;9.68;2.83;;;;;;;14.12;100.00;97945.34;5018569;28;20026;-89
2022/10/24 08:54:12;;;;;;;14.00;6.82;;;;;;;14.23;100.00;97959.59;5009142;28;20041;-89
2022/10/24 08:56:38;;;;;;;8.25;2.80;;;;;;;14.31;100.00;97953.19;5026031;28;20127;-88
2022/10/24 08:59:07;;;;;;;5.85;2.58;;;;;;;14.28;100.00;97945.75;5021430;28;20069;-89
2022/10/24 09:01:55;;;;;;;5.70;2.58;;;;;;;14.38;100.00;97940.69;5012351;28;20442;-90
2022/10/24 09:04:27;;;;;;;12.07;3.63;;;;;;;14.54;100.00;97945.34;5027013;28;20038;-90
2022/10/24 09:06:54;;;;;;;26.42;12.82;;;;;;;14.58;100.00;97941.22;5023530;28;20068;-90
2022/10/24 09:09:30;;;;;;;9.90;4.03;;;;;;;14.59;100.00;97937.53;5025742;28;20042;-90
2022/10/24 09:12:06;;;;;;;8.07;3.28;;;;;;;14.60;100.00;97927.78;5009082;28;20034;-89
2022/10/24 09:14:37;;;;;;;8.98;4.72;;;;;;;14.60;100.00;97944.41;5020957;28;20375;-89
2022/10/24 09:17:29;;;;;;;;;;;;;;;14.57;100.00;97955.41;5040183;28;20119;-89
2022/10/24 09:19:57;;;;;;;14.48;8.02;;;;;;;14.49;100.00;97958.41;5016953;28;19960;-89
2022/10/24 09:22:28;;;;;;;8.60;4.45;;;;;;;14.50;100.00;97954.72;5019749;28;20040;-90
2022/10/24 09:25:03;;;;;;;17.55;6.38;;;;;;;14.60;100.00;97962.09;5026715;28;20034;-89
2022/10/24 09:27:34;;;;;;;15.98;5.75;;;;;;;14.61;100.00;97956.59;5026625;28;20076;-90
2022/10/24 09:30:00;;;;;;;6.30;3.10;;;;;;;14.58;100.00;97951.78;5011525;28;20089;-90
2022/10/24 09:32:34;;;;;;;8.02;2.78;;;;;;;14.60;100.00;97960.25;5024244;28;20123;-90
2022/10/24 09:35:05;;;;;;;13.00;5.47;;;;;;;14.63;100.00;97954.53;5019724;28;20081;-90
2022/10/24 09:37:47;;;;;;;12.80;4.47;;;;;;;14.72;100.00;97963.72;5003820;28;20038;-89
2022/10/24 09:40:33;;;;;;;14.43;6.00;;;;;;;14.79;100.00;97973.34;5019980;28;20120;-89
2022/10/24 09:43:15;;;;;;;10.40;4.32;;;;;;;14.89;100.00;97979.69;4995425;28;20296;-88
2022/10/24 09:46:30;;;;;;;19.02;7.47;;;;;;;14.90;100.00;97978.63;5000995;28;20034;-90
2022/10/24 09:49:18;;;;;;;15.65;5.28;;;;;;;14.89;100.00;97997.34;4983235;28;20054;-90
2022/10/24 09:51:59;;;;;;;11.50;4.68;;;;;;;14.85;100.00;97998.84;5008505;28;20034;-90
2022/10/24 09:54:30;;;;;;;9.43;5.63;;;;;;;14.84;100.00;98018.34;5004059;28;20042;-90
2022/10/24 09:57:11;;;;;;;9.52;2.72;;;;;;;14.88;100.00;98027.44;4995727;28;20029;-89
2022/10/24 09:59:42;;;;;;;4.50;2.53;;;;;;;14.91;100.00;98034.88;5006975;28;20599;-90
2022/10/24 10:02:33;;;;;;;7.40;2.53;;;;;;;14.97;100.00;98023.41;4998625;28;20061;-90
2022/10/24 10:05:01;;;;;;;8.98;2.45;;;;;;;14.97;100.00;98023.41;5008536;28;20045;-89
2022/10/24 10:07:33;;;;;;;5.78;2.35;;;;;;;14.91;100.00;98008.47;4995373;28;20117;-90
2022/10/24 10:10:26;;;;;;;6.22;2.42;;;;;;;14.92;100.00;98002.16;4991218;28;20486;-90
2022/10/24 10:13:03;;;;;;;4.95;2.00;;;;;;;14.99;100.00;98005.50;4984146;28;20125;-91
2022/10/24 10:15:34;;;;;;;5.07;1.88;;;;;;;15.06;100.00;98003.56;5001345;28;20638;-90
2022/10/24 10:18:24;;;;;;;4.72;2.20;;;;;;;15.08;99.79;97985.63;5001429;28;20412;-90
2022/10/24 10:21:12;;;;;;;5.80;1.92;;;;;;;15.03;99.62;97990.78;4991443;28;20075;-89
2022/10/24 10:23:40;;;;;;;6.68;2.00;;;;;;;14.93;99.32;97980.84;4992665;28;20474;-90
2022/10/24 10:26:19;;;;;;;6.60;2.00;;;;;;;15.01;99.47;97987.59;4999740;28;20045;-90
2022/10/24 10:28:57;;;;;;;5.60;2.00;;;;;;;15.01;99.81;97982.31;5007241;28;20054;-90
2022/10/24 10:31:34;;;;;;;6.57;1.85;;;;;;;14.97;99.64;97992.53;5020157;28;20038;-90
2022/10/24 10:34:31;;;;;;;4.60;2.47;;;;;;;14.99;99.99;97989.63;5001736;28;20045;-90
2022/10/24 10:37:22;;;;;;;4.07;2.20;;;;;;;14.96;100.00;98000.69;5000716;28;20052;-90
2022/10/24 10:40:25;;;;;;;6.28;2.80;;;;;;;14.97;100.00;97991.72;5013186;28;20026;-90
2022/10/24 10:43:16;;;;;;;5.32;2.58;;;;;;;14.99;100.00;97985.19;5016122;28;20076;-89
2022/10/24 10:46:03;;;;;;;5.88;2.50;;;;;;;15.15;100.00;97998.72;5003534;28;20483;-90
2022/10/24 10:49:01;;;;;;;9.85;3.10;;;;;;;15.25;100.00;97999.75;5006890;28;20045;-90
2022/10/24 10:51:45;;;;;;;7.68;2.80;;;;;;;15.16;100.00;97987.13;4993981;28;20106;-90
2022/10/24 10:54:45;;;;;;;9.00;2.67;;;;;;;15.22;100.00;97989.63;4992454;28;20038;-90
2022/10/24 10:57:20;;;;;;;7.00;2.97;;;;;;;15.21;100.00;98000.44;5018654;28;20058;-89
2022/10/24 11:00:18;;;;;;;6.03;2.47;;;;;;;15.26;100.00;98003.19;4993648;28;20110;-90
2022/10/24 11:02:54;;;;;;;5.85;2.28;;;;;;;15.35;99.76;98019.47;4994252;28;20045;-90
2022/10/24 11:05:49;;;;;;;6.53;2.30;;;;;;;15.50;99.31;98038.31;5005659;28;20030;-89
2022/10/24 11:08:34;;;;;;;5.75;2.30;;;;;;;15.55;99.45;98025.22;5009569;28;20033;-90
2022/10/24 11:11:11;;;;;;;5.70;2.55;;;;;;;15.48;98.91;98000.75;5018640;28;20038;-90
2022/10/24 11:13:51;;;;;;;8.10;2.80;;;;;;;15.44;99.53;97986.38;4997940;28;20053;-89
2022/10/24 11:16:25;;;;;;;9.20;3.90;;;;;;;15.40;99.75;97949.03;4992229;28;20563;-89
2022/10/24 11:18:58;;;;;;;8.15;4.10;;;;;;;15.27;100.00;97965.16;4990829;28;20693;-89
2022/10/24 11:21:28;;;;;;;7.35;3.67;;;;;;;15.38;100.00;97966.97;4990836;28;20116;-89
2022/10/24 11:24:14;;;;;;;7.68;3.80;;;;;;;15.46;100.00;97979.03;4990379;28;20038;-90
2022/10/24 11:26:49;;;;;;;7.55;3.38;;;;;;;15.46;99.86;97977.19;4991930;28;20042;-89
2022/10/24 11:29:30;;;;;;;6.65;3.30;;;;;;;15.56;99.45;97973.94;4999838;28;20140;-89
2022/10/24 11:32:15;;;;;;;6.55;2.67;;;;;;;15.67;98.91;97975.78;4998540;28;20041;-88
2022/10/24 11:35:21;;;;;;;7.28;2.90;;;;;;;15.79;98.48;97973.09;4997278;28;20140;-89
2022/10/24 11:37:55;;;;;;;6.93;3.20;;;;;;;15.83;98.54;97963.63;4991765;28;20065;-90
2022/10/24 11:40:27;;;;;;;7.43;3.45;;;;;;;15.99;98.43;97972.66;4995057;28;20522;-89
2022/10/24 11:43:26;;;;;;;7.15;2.90;;;;;;;16.04;98.12;97964.81;4995705;28;20034;-89
2022/10/24 11:46:25;;;;;;;6.13;2.38;;;;;;;16.17;97.62;97961.88;4998998;28;20116;-88
2022/10/24 11:49:10;;;;;;;6.45;3.05;;;;;;;16.21;97.05;97960.38;4994167;28;20144;-89
2022/10/24 11:52:14;;;;;;;8.48;3.15;;;;;;;16.30;98.16;97953.63;4991594;28;20121;-89
2022/10/24 11:54:50;;;;;;;5.97;2.47;;;;;;;16.31;96.41;97947.31;4992797;28;20042;-88
2022/10/24 11:57:27;;;;;;;8.35;2.97;;;;;;;16.46;96.28;97957.34;4990743;28;20109;-89
2022/10/24 11:59:56;;;;;;;10.27;3.10;;;;;;;16.44;95.71;97958.63;4996365;28;20625;-89
2022/10/24 12:02:52;;;;;;;7.97;3.22;;;;;;;16.45;94.97;97966.31;4990900;28;20027;-89
2022/10/24 12:05:48;;;;;;;9.02;2.88;;;;;;;16.42;95.12;97966.78;5003193;28;20050;-88
2022/10/24 12:08:27;;;;;;;7.53;2.65;;;;;;;16.46;94.66;97967.91;4994765;28;20048;-88
2022/10/24 12:10:59;;;;;;;7.68;2.50;;;;;;;16.48;93.71;97971.13;5002049;28;20049;-89
2022/10/24 12:14:01;;;;;;;6.85;3.15;;;;;;;16.49;93.91;97956.03;5002491;28;20029;-89
2022/10/24 12:17:12;;;;;;;6.68;2.50;;;;;;;16.62;94.28;97970.81;4990507;28;20109;-89
2022/10/24 12:19:41;;;;;;;7.03;2.40;;;;;;;16.55;92.79;97955.06;4990427;28;20034;-88
2022/10/24 12:22:22;;;;;;;6.95;2.97;;;;;;;16.58;92.90;97951.97;4998569;28;20098;-88